Jp Tsubaki — JD2817 — position and weather

sailwx.info

Track history (hours):
 
Tides and Currents Weather Stations Pressure Air Temp Water Temp Dewpoint Dewpoint Depression Visibility Wind Speed Wind Dir Waves Ship Positions

Jp Tsubaki

Last reported at 2016-Jun-27 21:32 UTC. Time now 2016-Jun-27 22:22 UTC.
Position N 35°24' E 139°39'.

Length 115 m; draft 4.4 m.

Type: Cargo ship. MMSI: 431000734.

Date/timePositionNaut miles runAvg speedWind from/ knotsBaromVisibWave heightAir tempDewpointWater temp
2016-Jun-27 21:32N 35°24' E 139°39'0 0.0
2016-Jun-27 20:32N 35°24' E 139°39'0 0.0
2016-Jun-27 19:32N 35°24' E 139°39'0 0.0
2016-Jun-27 18:32N 35°24' E 139°39'0 0.0
2016-Jun-27 17:32N 35°24' E 139°39'0 0.0
2016-Jun-27 16:32N 35°24' E 139°39'0 0.0
2016-Jun-27 15:32N 35°24' E 139°39'0 0.0
2016-Jun-27 14:26N 35°24' E 139°39'0 0.0
2016-Jun-27 13:29N 35°24' E 139°39'1 1.2
2016-Jun-27 12:33N 35°24' E 139°40'0 0.1
2016-Jun-27 11:32N 35°24' E 139°40'0 0.0
2016-Jun-27 10:32N 35°24' E 139°40'0 0.0
2016-Jun-27 09:29N 35°24' E 139°40'0 0.0
2016-Jun-27 08:32N 35°24' E 139°40'0 0.0
2016-Jun-27 07:32N 35°24' E 139°40'0 0.0
2016-Jun-27 06:32N 35°24' E 139°40'1 1.2
2016-Jun-27 05:34N 35°24' E 139°39'0 0.0
2016-Jun-27 04:31N 35°24' E 139°39'0 0.0
2016-Jun-27 03:31N 35°24' E 139°39'0 0.0
2016-Jun-27 02:31N 35°24' E 139°39'0 0.0
2016-Jun-27 01:31N 35°24' E 139°39'0 0.0
2016-Jun-27 00:31N 35°24' E 139°39'0 0.0
2016-Jun-26 23:31N 35°24' E 139°39'0 0.0
2016-Jun-26 22:31N 35°24' E 139°39'0 0.0
2016-Jun-26 21:31N 35°24' E 139°39'0 0.0
2016-Jun-26 20:28N 35°24' E 139°39'0 0.0
2016-Jun-26 19:28N 35°24' E 139°39'0 0.0
2016-Jun-26 18:31N 35°24' E 139°39'0 0.0
2016-Jun-26 17:28N 35°24' E 139°39'0 0.0
2016-Jun-26 16:31N 35°24' E 139°39'0 0.0
2016-Jun-26 15:31N 35°24' E 139°39'0 0.0
2016-Jun-26 14:31N 35°24' E 139°39'0 0.0
2016-Jun-26 13:33N 35°24' E 139°39'2 2.0
2016-Jun-26 12:33N 35°23' E 139°41'8 7.7
2016-Jun-26 11:33N 35°30' E 139°45'2 1.6
2016-Jun-26 10:32N 35°30' E 139°43'0 0.0
2016-Jun-26 09:32N 35°30' E 139°43'0 0.0
2016-Jun-26 08:32N 35°30' E 139°43'0 0.0
2016-Jun-26 07:32N 35°30' E 139°43'0 0.0
2016-Jun-26 06:32N 35°30' E 139°43'3 3.0
2016-Jun-26 05:33N 35°27' E 139°43'5 4.5
2016-Jun-26 04:32N 35°24' E 139°39'0 0.0
2016-Jun-26 03:32N 35°24' E 139°39'0 0.0
2016-Jun-26 02:32N 35°24' E 139°39'0 0.0
2016-Jun-26 01:32N 35°24' E 139°39'0 0.0
2016-Jun-26 00:32N 35°24' E 139°39'0 0.0
2016-Jun-25 23:32N 35°24' E 139°39'0 0.4
2016-Jun-25 22:33N 35°24' E 139°39'9 8.5
2016-Jun-25 21:33N 35°26' E 139°49'2 1.5
2016-Jun-25 20:33N 35°26' E 139°51'0 0.0
2016-Jun-25 19:30N 35°26' E 139°51'0 0.0
2016-Jun-25 18:33N 35°26' E 139°51'0 0.0
2016-Jun-25 17:30N 35°26' E 139°51'0 0.1
2016-Jun-25 16:33N 35°26' E 139°51'0 0.1
2016-Jun-25 15:33N 35°26' E 139°51'0 0.0
2016-Jun-25 14:32N 35°26' E 139°51'0 0.0
2016-Jun-25 13:33N 35°26' E 139°51'0 0.0
2016-Jun-25 12:33N 35°26' E 139°51'0 0.0
2016-Jun-25 11:33N 35°26' E 139°51'0 0.0
2016-Jun-25 10:33N 35°26' E 139°51'0 0.0
2016-Jun-25 09:33N 35°26' E 139°51'0 0.0
2016-Jun-25 08:33N 35°26' E 139°51'0 0.0
2016-Jun-25 07:31N 35°26' E 139°51'0 0.0
2016-Jun-25 06:33N 35°26' E 139°51'0 0.0
2016-Jun-25 05:31N 35°26' E 139°51'0 0.0
2016-Jun-25 04:31N 35°26' E 139°51'0 0.0
2016-Jun-25 03:33N 35°26' E 139°51'0 0.0
2016-Jun-25 02:32N 35°26' E 139°51'0 0.0
2016-Jun-25 01:33N 35°26' E 139°51'0 0.0
2016-Jun-25 00:33N 35°26' E 139°51'0 0.1
2016-Jun-24 23:33N 35°26' E 139°51'0 0.0
2016-Jun-24 22:33N 35°26' E 139°51'0 0.1
2016-Jun-24 21:33N 35°26' E 139°51'0 0.0
2016-Jun-24 20:24N 35°26' E 139°51'0 0.0
2016-Jun-24 19:33N 35°26' E 139°51'0 0.0
2016-Jun-24 18:33N 35°26' E 139°51'0 0.0
2016-Jun-24 17:32N 35°26' E 139°51'0 0.0
2016-Jun-24 16:31N 35°26' E 139°51'0 0.1
2016-Jun-24 15:31N 35°26' E 139°51'0 0.0
2016-Jun-24 14:31N 35°26' E 139°51'0 0.0
2016-Jun-24 13:31N 35°26' E 139°51'0 0.1
2016-Jun-24 12:33N 35°26' E 139°51'5 5.4
2016-Jun-24 11:33N 35°30' E 139°47'3 3.0
2016-Jun-24 10:31N 35°30' E 139°43'0 0.0
2016-Jun-24 09:31N 35°30' E 139°43'0 0.0
2016-Jun-24 08:31N 35°30' E 139°43'0 0.0
2016-Jun-24 07:31N 35°30' E 139°43'3 1.0
2016-Jun-24 04:34N 35°27' E 139°43'4 4.4
2016-Jun-24 03:32N 35°24' E 139°39'0 0.0
2016-Jun-24 02:32N 35°24' E 139°39'0 0.0
2016-Jun-24 01:32N 35°24' E 139°39'0 0.0
2016-Jun-24 00:32N 35°24' E 139°39'0 0.0
2016-Jun-23 23:32N 35°24' E 139°39'0 0.0
2016-Jun-23 22:32N 35°24' E 139°39'0 0.0
2016-Jun-23 21:32N 35°24' E 139°39'0 0.0
2016-Jun-23 20:29N 35°24' E 139°39'0 0.0
2016-Jun-23 19:32N 35°24' E 139°39'0 0.0
2016-Jun-23 18:32N 35°24' E 139°39'0 0.0
2016-Jun-23 17:32N 35°24' E 139°39'0 0.0
2016-Jun-23 16:32N 35°24' E 139°39'0 0.0
2016-Jun-23 15:32N 35°24' E 139°39'0 0.0
2016-Jun-23 14:32N 35°24' E 139°39'0 0.0
2016-Jun-23 13:33N 35°24' E 139°39'1 1.4
2016-Jun-23 12:33N 35°24' E 139°40'8 8.4
2016-Jun-23 11:33N 35°30' E 139°46'3 2.5
2016-Jun-23 10:31N 35°30' E 139°43'0 0.0
2016-Jun-23 09:31N 35°30' E 139°43'0 0.0
2016-Jun-23 08:31N 35°30' E 139°43'0 0.0
2016-Jun-23 07:31N 35°30' E 139°43'0 0.0
2016-Jun-23 05:34N 35°30' E 139°43'5 5.2
2016-Jun-23 04:34N 35°25' E 139°45'2 1.5
2016-Jun-23 03:31N 35°23' E 139°44'0 0.0
2016-Jun-23 02:28N 35°23' E 139°44'0 0.0
2016-Jun-23 01:31N 35°23' E 139°44'0 0.0
2016-Jun-23 00:31N 35°23' E 139°44'0 0.1
2016-Jun-22 23:31N 35°23' E 139°44'0 0.1
2016-Jun-22 22:31N 35°23' E 139°44'0 0.1
2016-Jun-22 21:31N 35°23' E 139°44'0 0.1
2016-Jun-22 20:31N 35°23' E 139°44'0 0.0
2016-Jun-22 19:31N 35°23' E 139°44'0 0.0
2016-Jun-22 18:31N 35°23' E 139°44'0 0.0
2016-Jun-22 17:31N 35°23' E 139°44'0 0.0
2016-Jun-22 16:31N 35°23' E 139°44'0 0.0
2016-Jun-22 15:31N 35°23' E 139°44'0 0.0
2016-Jun-22 14:31N 35°23' E 139°44'0 0.0
2016-Jun-22 13:31N 35°23' E 139°44'0 0.0
2016-Jun-22 12:31N 35°23' E 139°44'2 1.8
2016-Jun-22 11:34N 35°23' E 139°42'3 2.9
2016-Jun-22 10:33N 35°24' E 139°38'0 0.0
2016-Jun-22 09:33N 35°24' E 139°38'0 0.0
2016-Jun-22 08:33N 35°24' E 139°38'0 0.0
2016-Jun-22 07:33N 35°24' E 139°38'0 0.0
2016-Jun-22 06:34N 35°24' E 139°38'4 4.0
2016-Jun-22 05:34N 35°25' E 139°43'4 4.3
2016-Jun-22 04:34N 35°30' E 139°43'0 0.2
2016-Jun-22 03:33N 35°30' E 139°43'0 0.0
2016-Jun-22 02:33N 35°30' E 139°43'0 0.0
2016-Jun-22 01:33N 35°30' E 139°43'0 0.0
2016-Jun-22 00:30N 35°30' E 139°43'0 0.0
2016-Jun-21 23:33N 35°30' E 139°43'1 1.1
2016-Jun-21 22:33N 35°29' E 139°42'6 5.8
2016-Jun-21 21:33N 35°24' E 139°45'0 0.0
2016-Jun-21 20:31N 35°24' E 139°45'0 0.0
2016-Jun-21 19:31N 35°24' E 139°45'0 0.1
2016-Jun-21 18:31N 35°24' E 139°45'0 0.0
2016-Jun-21 17:31N 35°24' E 139°45'0 0.0
2016-Jun-21 16:31N 35°24' E 139°45'0 0.0
2016-Jun-21 15:31N 35°24' E 139°45'0 0.0
2016-Jun-21 14:31N 35°24' E 139°45'0 0.0
2016-Jun-21 13:31N 35°24' E 139°45'0 0.0
2016-Jun-21 12:31N 35°24' E 139°45'0 0.0
2016-Jun-21 11:31N 35°24' E 139°45'0 0.0
2016-Jun-21 10:31N 35°24' E 139°45'0 0.0
2016-Jun-21 09:31N 35°24' E 139°45'0 0.0
2016-Jun-21 08:31N 35°24' E 139°45'0 0.1
2016-Jun-21 07:31N 35°24' E 139°45'0 0.0
2016-Jun-21 06:31N 35°24' E 139°45'0 0.1
2016-Jun-21 04:33N 35°24' E 139°45'0 0.1
2016-Jun-21 03:33N 35°24' E 139°45'0 0.0
2016-Jun-21 02:33N 35°24' E 139°45'0 0.0
2016-Jun-21 01:33N 35°24' E 139°45'0 0.1
2016-Jun-21 00:33N 35°24' E 139°45'0 0.0
2016-Jun-20 23:33N 35°24' E 139°45'0 0.0
2016-Jun-20 22:33N 35°24' E 139°45'0 0.0
2016-Jun-20 21:33N 35°24' E 139°45'0 0.0
2016-Jun-20 20:33N 35°24' E 139°45'0 0.1
2016-Jun-20 19:33N 35°24' E 139°45'0 0.0
2016-Jun-20 18:33N 35°24' E 139°45'0 0.0
2016-Jun-20 17:33N 35°24' E 139°45'0 0.1
2016-Jun-20 16:33N 35°24' E 139°45'0 0.0
2016-Jun-20 15:33N 35°24' E 139°45'0 0.1
2016-Jun-20 14:33N 35°24' E 139°45'4 3.6
2016-Jun-20 13:33N 35°23' E 139°41'2 2.1
2016-Jun-20 12:31N 35°24' E 139°38'0 0.0
2016-Jun-20 11:31N 35°24' E 139°38'0 0.0
2016-Jun-20 10:31N 35°24' E 139°38'0 0.0
2016-Jun-20 09:31N 35°24' E 139°38'0 0.0
2016-Jun-20 08:31N 35°24' E 139°38'0 0.0
2016-Jun-20 07:31N 35°24' E 139°38'0 0.0
2016-Jun-20 06:34N 35°24' E 139°38'3 2.7
2016-Jun-20 05:34N 35°24' E 139°42'7 7.1
2016-Jun-20 04:34N 35°30' E 139°45'2 2.0
2016-Jun-20 03:32N 35°30' E 139°43'0 0.0
2016-Jun-20 02:32N 35°30' E 139°43'0 0.0
2016-Jun-20 01:32N 35°30' E 139°43'0 0.0
2016-Jun-20 00:32N 35°30' E 139°43'0 0.0
2016-Jun-19 23:32N 35°30' E 139°43'0 0.0
2016-Jun-19 22:32N 35°30' E 139°43'0 0.0
2016-Jun-19 21:32N 35°30' E 139°43'0 0.0
2016-Jun-19 20:32N 35°30' E 139°43'0 0.0
2016-Jun-19 19:32N 35°30' E 139°43'0 0.0
2016-Jun-19 18:29N 35°30' E 139°43'0 0.0
2016-Jun-19 17:32N 35°30' E 139°43'0 0.0
2016-Jun-19 16:32N 35°30' E 139°43'0 0.0
2016-Jun-19 15:32N 35°30' E 139°43'0 0.0
2016-Jun-19 14:32N 35°30' E 139°43'0 0.0
2016-Jun-19 13:32N 35°30' E 139°43'0 0.0
2016-Jun-19 12:32N 35°30' E 139°43'0 0.0
2016-Jun-19 11:32N 35°30' E 139°43'0 0.0
2016-Jun-19 10:32N 35°30' E 139°43'0 0.0
2016-Jun-19 09:32N 35°30' E 139°43'0 0.0
2016-Jun-19 08:32N 35°30' E 139°43'0 0.0
2016-Jun-19 07:32N 35°30' E 139°43'0 0.0
2016-Jun-19 06:32N 35°30' E 139°43'0 0.0
2016-Jun-19 05:32N 35°30' E 139°43'0 0.0
2016-Jun-19 04:32N 35°30' E 139°43'0 0.0
2016-Jun-19 03:32N 35°30' E 139°43'0 0.0
2016-Jun-19 02:32N 35°30' E 139°43'0 0.0
2016-Jun-19 01:32N 35°30' E 139°43'0 0.0
2016-Jun-19 00:32N 35°30' E 139°43'0 0.0
2016-Jun-18 23:32N 35°30' E 139°43'0 0.0
2016-Jun-18 22:32N 35°30' E 139°43'0 0.0
2016-Jun-18 21:32N 35°30' E 139°43'0 0.0
2016-Jun-18 20:32N 35°30' E 139°43'0 0.0
2016-Jun-18 19:32N 35°30' E 139°43'0 0.0
2016-Jun-18 18:32N 35°30' E 139°43'0 0.0
2016-Jun-18 17:32N 35°30' E 139°43'0 0.0
2016-Jun-18 16:32N 35°30' E 139°43'0 0.0
2016-Jun-18 15:32N 35°30' E 139°43'0 0.0
2016-Jun-18 14:32N 35°30' E 139°43'0 0.0
2016-Jun-18 13:32N 35°30' E 139°43'0 0.0
2016-Jun-18 12:32N 35°30' E 139°43'0 0.0
2016-Jun-18 11:32N 35°30' E 139°43'0 0.0
2016-Jun-18 10:32N 35°30' E 139°43'0 0.0
2016-Jun-18 09:32N 35°30' E 139°43'0 0.0
2016-Jun-18 08:32N 35°30' E 139°43'0 0.0
2016-Jun-18 07:32N 35°30' E 139°43'0 0.0
2016-Jun-18 06:32N 35°30' E 139°43'0 0.0
2016-Jun-18 05:32N 35°30' E 139°43'0 0.0
2016-Jun-18 04:32N 35°30' E 139°43'0 0.0
2016-Jun-18 03:32N 35°30' E 139°43'0 0.0
2016-Jun-18 02:32N 35°30' E 139°43'0 0.0
2016-Jun-18 01:32N 35°30' E 139°43'0 0.0
2016-Jun-18 00:33N 35°30' E 139°43'4 4.4
2016-Jun-17 23:33N 35°25' E 139°44'2 2.2
2016-Jun-17 22:33N 35°23' E 139°45'0 0.0
2016-Jun-17 21:33N 35°23' E 139°45'  
Track history (hours):
 
Tides and Currents Weather Stations Pressure Air Temp Water Temp Dewpoint Dewpoint Depression Visibility Wind Speed Wind Dir Waves Ship Positions

Jp Tsubaki

Last reported at 2016-Jun-27 21:32 UTC. Time now 2016-Jun-27 22:22 UTC.
Position N 35°24' E 139°39'.

Length 115 m; draft 4.4 m.

Type: Cargo ship. MMSI: 431000734.

Date/timePositionNaut miles runAvg speedWind from/ knotsBaromVisibWave heightAir tempDewpointWater temp
2016-Jun-27 21:32N 35°24' E 139°39'0 0.0
2016-Jun-27 20:32N 35°24' E 139°39'0 0.0
2016-Jun-27 19:32N 35°24' E 139°39'0 0.0
2016-Jun-27 18:32N 35°24' E 139°39'0 0.0
2016-Jun-27 17:32N 35°24' E 139°39'0 0.0
2016-Jun-27 16:32N 35°24' E 139°39'0 0.0
2016-Jun-27 15:32N 35°24' E 139°39'0 0.0
2016-Jun-27 14:26N 35°24' E 139°39'0 0.0
2016-Jun-27 13:29N 35°24' E 139°39'1 1.2
2016-Jun-27 12:33N 35°24' E 139°40'0 0.1
2016-Jun-27 11:32N 35°24' E 139°40'0 0.0
2016-Jun-27 10:32N 35°24' E 139°40'0 0.0
2016-Jun-27 09:29N 35°24' E 139°40'0 0.0
2016-Jun-27 08:32N 35°24' E 139°40'0 0.0
2016-Jun-27 07:32N 35°24' E 139°40'0 0.0
2016-Jun-27 06:32N 35°24' E 139°40'1 1.2
2016-Jun-27 05:34N 35°24' E 139°39'0 0.0
2016-Jun-27 04:31N 35°24' E 139°39'0 0.0
2016-Jun-27 03:31N 35°24' E 139°39'0 0.0
2016-Jun-27 02:31N 35°24' E 139°39'0 0.0
2016-Jun-27 01:31N 35°24' E 139°39'0 0.0
2016-Jun-27 00:31N 35°24' E 139°39'0 0.0
2016-Jun-26 23:31N 35°24' E 139°39'0 0.0
2016-Jun-26 22:31N 35°24' E 139°39'0 0.0
2016-Jun-26 21:31N 35°24' E 139°39'0 0.0
2016-Jun-26 20:28N 35°24' E 139°39'0 0.0
2016-Jun-26 19:28N 35°24' E 139°39'0 0.0
2016-Jun-26 18:31N 35°24' E 139°39'0 0.0
2016-Jun-26 17:28N 35°24' E 139°39'0 0.0
2016-Jun-26 16:31N 35°24' E 139°39'0 0.0
2016-Jun-26 15:31N 35°24' E 139°39'0 0.0
2016-Jun-26 14:31N 35°24' E 139°39'0 0.0
2016-Jun-26 13:33N 35°24' E 139°39'2 2.0
2016-Jun-26 12:33N 35°23' E 139°41'8 7.7
2016-Jun-26 11:33N 35°30' E 139°45'2 1.6
2016-Jun-26 10:32N 35°30' E 139°43'0 0.0
2016-Jun-26 09:32N 35°30' E 139°43'0 0.0
2016-Jun-26 08:32N 35°30' E 139°43'0 0.0
2016-Jun-26 07:32N 35°30' E 139°43'0 0.0
2016-Jun-26 06:32N 35°30' E 139°43'3 3.0
2016-Jun-26 05:33N 35°27' E 139°43'5 4.5
2016-Jun-26 04:32N 35°24' E 139°39'0 0.0
2016-Jun-26 03:32N 35°24' E 139°39'0 0.0
2016-Jun-26 02:32N 35°24' E 139°39'0 0.0
2016-Jun-26 01:32N 35°24' E 139°39'0 0.0
2016-Jun-26 00:32N 35°24' E 139°39'0 0.0
2016-Jun-25 23:32N 35°24' E 139°39'0 0.4
2016-Jun-25 22:33N 35°24' E 139°39'9 8.5
2016-Jun-25 21:33N 35°26' E 139°49'2 1.5
2016-Jun-25 20:33N 35°26' E 139°51'0 0.0
2016-Jun-25 19:30N 35°26' E 139°51'0 0.0
2016-Jun-25 18:33N 35°26' E 139°51'0 0.0
2016-Jun-25 17:30N 35°26' E 139°51'0 0.1
2016-Jun-25 16:33N 35°26' E 139°51'0 0.1
2016-Jun-25 15:33N 35°26' E 139°51'0 0.0
2016-Jun-25 14:32N 35°26' E 139°51'0 0.0
2016-Jun-25 13:33N 35°26' E 139°51'0 0.0
2016-Jun-25 12:33N 35°26' E 139°51'0 0.0
2016-Jun-25 11:33N 35°26' E 139°51'0 0.0
2016-Jun-25 10:33N 35°26' E 139°51'0 0.0
2016-Jun-25 09:33N 35°26' E 139°51'0 0.0
2016-Jun-25 08:33N 35°26' E 139°51'0 0.0
2016-Jun-25 07:31N 35°26' E 139°51'0 0.0
2016-Jun-25 06:33N 35°26' E 139°51'0 0.0
2016-Jun-25 05:31N 35°26' E 139°51'0 0.0
2016-Jun-25 04:31N 35°26' E 139°51'0 0.0
2016-Jun-25 03:33N 35°26' E 139°51'0 0.0
2016-Jun-25 02:32N 35°26' E 139°51'0 0.0
2016-Jun-25 01:33N 35°26' E 139°51'0 0.0
2016-Jun-25 00:33N 35°26' E 139°51'0 0.1
2016-Jun-24 23:33N 35°26' E 139°51'0 0.0
2016-Jun-24 22:33N 35°26' E 139°51'0 0.1
2016-Jun-24 21:33N 35°26' E 139°51'0 0.0
2016-Jun-24 20:24N 35°26' E 139°51'0 0.0
2016-Jun-24 19:33N 35°26' E 139°51'0 0.0
2016-Jun-24 18:33N 35°26' E 139°51'0 0.0
2016-Jun-24 17:32N 35°26' E 139°51'0 0.0
2016-Jun-24 16:31N 35°26' E 139°51'0 0.1
2016-Jun-24 15:31N 35°26' E 139°51'0 0.0
2016-Jun-24 14:31N 35°26' E 139°51'0 0.0
2016-Jun-24 13:31N 35°26' E 139°51'0 0.1
2016-Jun-24 12:33N 35°26' E 139°51'5 5.4
2016-Jun-24 11:33N 35°30' E 139°47'3 3.0
2016-Jun-24 10:31N 35°30' E 139°43'0 0.0
2016-Jun-24 09:31N 35°30' E 139°43'0 0.0
2016-Jun-24 08:31N 35°30' E 139°43'0 0.0
2016-Jun-24 07:31N 35°30' E 139°43'3 1.0
2016-Jun-24 04:34N 35°27' E 139°43'4 4.4
2016-Jun-24 03:32N 35°24' E 139°39'0 0.0
2016-Jun-24 02:32N 35°24' E 139°39'0 0.0
2016-Jun-24 01:32N 35°24' E 139°39'0 0.0
2016-Jun-24 00:32N 35°24' E 139°39'0 0.0
2016-Jun-23 23:32N 35°24' E 139°39'0 0.0
2016-Jun-23 22:32N 35°24' E 139°39'0 0.0
2016-Jun-23 21:32N 35°24' E 139°39'0 0.0
2016-Jun-23 20:29N 35°24' E 139°39'0 0.0
2016-Jun-23 19:32N 35°24' E 139°39'0 0.0
2016-Jun-23 18:32N 35°24' E 139°39'0 0.0
2016-Jun-23 17:32N 35°24' E 139°39'0 0.0
2016-Jun-23 16:32N 35°24' E 139°39'0 0.0
2016-Jun-23 15:32N 35°24' E 139°39'0 0.0
2016-Jun-23 14:32N 35°24' E 139°39'0 0.0
2016-Jun-23 13:33N 35°24' E 139°39'1 1.4
2016-Jun-23 12:33N 35°24' E 139°40'8 8.4
2016-Jun-23 11:33N 35°30' E 139°46'3 2.5
2016-Jun-23 10:31N 35°30' E 139°43'0 0.0
2016-Jun-23 09:31N 35°30' E 139°43'0 0.0
2016-Jun-23 08:31N 35°30' E 139°43'0 0.0
2016-Jun-23 07:31N 35°30' E 139°43'0 0.0
2016-Jun-23 05:34N 35°30' E 139°43'5 5.2
2016-Jun-23 04:34N 35°25' E 139°45'2 1.5
2016-Jun-23 03:31N 35°23' E 139°44'0 0.0
2016-Jun-23 02:28N 35°23' E 139°44'0 0.0
2016-Jun-23 01:31N 35°23' E 139°44'0 0.0
2016-Jun-23 00:31N 35°23' E 139°44'0 0.1
2016-Jun-22 23:31N 35°23' E 139°44'0 0.1
2016-Jun-22 22:31N 35°23' E 139°44'0 0.1
2016-Jun-22 21:31N 35°23' E 139°44'0 0.1
2016-Jun-22 20:31N 35°23' E 139°44'0 0.0
2016-Jun-22 19:31N 35°23' E 139°44'0 0.0
2016-Jun-22 18:31N 35°23' E 139°44'0 0.0
2016-Jun-22 17:31N 35°23' E 139°44'0 0.0
2016-Jun-22 16:31N 35°23' E 139°44'0 0.0
2016-Jun-22 15:31N 35°23' E 139°44'0 0.0
2016-Jun-22 14:31N 35°23' E 139°44'0 0.0
2016-Jun-22 13:31N 35°23' E 139°44'0 0.0
2016-Jun-22 12:31N 35°23' E 139°44'2 1.8
2016-Jun-22 11:34N 35°23' E 139°42'3 2.9
2016-Jun-22 10:33N 35°24' E 139°38'0 0.0
2016-Jun-22 09:33N 35°24' E 139°38'0 0.0
2016-Jun-22 08:33N 35°24' E 139°38'0 0.0
2016-Jun-22 07:33N 35°24' E 139°38'0 0.0
2016-Jun-22 06:34N 35°24' E 139°38'4 4.0
2016-Jun-22 05:34N 35°25' E 139°43'4 4.3
2016-Jun-22 04:34N 35°30' E 139°43'0 0.2
2016-Jun-22 03:33N 35°30' E 139°43'0 0.0
2016-Jun-22 02:33N 35°30' E 139°43'0 0.0
2016-Jun-22 01:33N 35°30' E 139°43'0 0.0
2016-Jun-22 00:30N 35°30' E 139°43'0 0.0
2016-Jun-21 23:33N 35°30' E 139°43'1 1.1
2016-Jun-21 22:33N 35°29' E 139°42'6 5.8
2016-Jun-21 21:33N 35°24' E 139°45'0 0.0
2016-Jun-21 20:31N 35°24' E 139°45'0 0.0
2016-Jun-21 19:31N 35°24' E 139°45'0 0.1
2016-Jun-21 18:31N 35°24' E 139°45'0 0.0
2016-Jun-21 17:31N 35°24' E 139°45'0 0.0
2016-Jun-21 16:31N 35°24' E 139°45'0 0.0
2016-Jun-21 15:31N 35°24' E 139°45'0 0.0
2016-Jun-21 14:31N 35°24' E 139°45'0 0.0
2016-Jun-21 13:31N 35°24' E 139°45'0 0.0
2016-Jun-21 12:31N 35°24' E 139°45'0 0.0
2016-Jun-21 11:31N 35°24' E 139°45'0 0.0
2016-Jun-21 10:31N 35°24' E 139°45'0 0.0
2016-Jun-21 09:31N 35°24' E 139°45'0 0.0
2016-Jun-21 08:31N 35°24' E 139°45'0 0.1
2016-Jun-21 07:31N 35°24' E 139°45'0 0.0
2016-Jun-21 06:31N 35°24' E 139°45'0 0.1
2016-Jun-21 04:33N 35°24' E 139°45'0 0.1
2016-Jun-21 03:33N 35°24' E 139°45'0 0.0
2016-Jun-21 02:33N 35°24' E 139°45'0 0.0
2016-Jun-21 01:33N 35°24' E 139°45'0 0.1
2016-Jun-21 00:33N 35°24' E 139°45'0 0.0
2016-Jun-20 23:33N 35°24' E 139°45'0 0.0
2016-Jun-20 22:33N 35°24' E 139°45'0 0.0
2016-Jun-20 21:33N 35°24' E 139°45'0 0.0
2016-Jun-20 20:33N 35°24' E 139°45'0 0.1
2016-Jun-20 19:33N 35°24' E 139°45'0 0.0
2016-Jun-20 18:33N 35°24' E 139°45'0 0.0
2016-Jun-20 17:33N 35°24' E 139°45'0 0.1
2016-Jun-20 16:33N 35°24' E 139°45'0 0.0
2016-Jun-20 15:33N 35°24' E 139°45'0 0.1
2016-Jun-20 14:33N 35°24' E 139°45'4 3.6
2016-Jun-20 13:33N 35°23' E 139°41'2 2.1
2016-Jun-20 12:31N 35°24' E 139°38'0 0.0
2016-Jun-20 11:31N 35°24' E 139°38'0 0.0
2016-Jun-20 10:31N 35°24' E 139°38'0 0.0
2016-Jun-20 09:31N 35°24' E 139°38'0 0.0
2016-Jun-20 08:31N 35°24' E 139°38'0 0.0
2016-Jun-20 07:31N 35°24' E 139°38'0 0.0
2016-Jun-20 06:34N 35°24' E 139°38'3 2.7
2016-Jun-20 05:34N 35°24' E 139°42'7 7.1
2016-Jun-20 04:34N 35°30' E 139°45'2 2.0
2016-Jun-20 03:32N 35°30' E 139°43'0 0.0
2016-Jun-20 02:32N 35°30' E 139°43'0 0.0
2016-Jun-20 01:32N 35°30' E 139°43'0 0.0
2016-Jun-20 00:32N 35°30' E 139°43'0 0.0
2016-Jun-19 23:32N 35°30' E 139°43'0 0.0
2016-Jun-19 22:32N 35°30' E 139°43'0 0.0
2016-Jun-19 21:32N 35°30' E 139°43'0 0.0
2016-Jun-19 20:32N 35°30' E 139°43'0 0.0
2016-Jun-19 19:32N 35°30' E 139°43'0 0.0
2016-Jun-19 18:29N 35°30' E 139°43'0 0.0
2016-Jun-19 17:32N 35°30' E 139°43'0 0.0
2016-Jun-19 16:32N 35°30' E 139°43'0 0.0
2016-Jun-19 15:32N 35°30' E 139°43'0 0.0
2016-Jun-19 14:32N 35°30' E 139°43'0 0.0
2016-Jun-19 13:32N 35°30' E 139°43'0 0.0
2016-Jun-19 12:32N 35°30' E 139°43'0 0.0
2016-Jun-19 11:32N 35°30' E 139°43'0 0.0
2016-Jun-19 10:32N 35°30' E 139°43'0 0.0
2016-Jun-19 09:32N 35°30' E 139°43'0 0.0
2016-Jun-19 08:32N 35°30' E 139°43'0 0.0
2016-Jun-19 07:32N 35°30' E 139°43'0 0.0
2016-Jun-19 06:32N 35°30' E 139°43'0 0.0
2016-Jun-19 05:32N 35°30' E 139°43'0 0.0
2016-Jun-19 04:32N 35°30' E 139°43'0 0.0
2016-Jun-19 03:32N 35°30' E 139°43'0 0.0
2016-Jun-19 02:32N 35°30' E 139°43'0 0.0
2016-Jun-19 01:32N 35°30' E 139°43'0 0.0
2016-Jun-19 00:32N 35°30' E 139°43'0 0.0
2016-Jun-18 23:32N 35°30' E 139°43'0 0.0
2016-Jun-18 22:32N 35°30' E 139°43'0 0.0
2016-Jun-18 21:32N 35°30' E 139°43'0 0.0
2016-Jun-18 20:32N 35°30' E 139°43'0 0.0
2016-Jun-18 19:32N 35°30' E 139°43'0 0.0
2016-Jun-18 18:32N 35°30' E 139°43'0 0.0
2016-Jun-18 17:32N 35°30' E 139°43'0 0.0
2016-Jun-18 16:32N 35°30' E 139°43'0 0.0
2016-Jun-18 15:32N 35°30' E 139°43'0 0.0
2016-Jun-18 14:32N 35°30' E 139°43'0 0.0
2016-Jun-18 13:32N 35°30' E 139°43'0 0.0
2016-Jun-18 12:32N 35°30' E 139°43'0 0.0
2016-Jun-18 11:32N 35°30' E 139°43'0 0.0
2016-Jun-18 10:32N 35°30' E 139°43'0 0.0
2016-Jun-18 09:32N 35°30' E 139°43'0 0.0
2016-Jun-18 08:32N 35°30' E 139°43'0 0.0
2016-Jun-18 07:32N 35°30' E 139°43'0 0.0
2016-Jun-18 06:32N 35°30' E 139°43'0 0.0
2016-Jun-18 05:32N 35°30' E 139°43'0 0.0
2016-Jun-18 04:32N 35°30' E 139°43'0 0.0
2016-Jun-18 03:32N 35°30' E 139°43'0 0.0
2016-Jun-18 02:32N 35°30' E 139°43'0 0.0
2016-Jun-18 01:32N 35°30' E 139°43'0 0.0
2016-Jun-18 00:33N 35°30' E 139°43'4 4.4
2016-Jun-17 23:33N 35°25' E 139°44'2 2.2
2016-Jun-17 22:33N 35°23' E 139°45'0 0.0
2016-Jun-17 21:33N 35°23' E 139°45'  

Dump ship's entire track history